Terminal Aerodrome Forecast
Issued by NWS

Current Version | Previous Version | Text Only | Print | Product List | Glossary Off
Versions: 1 2 3 4 5 6 7 8 9 10 11 12 13 14

000
FTUS41 KPBZ 280500
TAFHLG
TAF
KHLG 280535Z 2806/2906 02007KT P6SM SCT250
     FM280800 34005KT 4SM BR SCT012
     FM281300 36005KT P6SM SKC=

USA.gov is the U.S. government's official web portal to all federal, state and local government web resources and services.